sensor_id;sensor_type;location;lat;lon;timestamp;P1;durP1;ratioP1;P2;durP2;ratioP2
55148;SDS011;49539;48.160;11.530;2022-07-23T00:00:11;8.85;;;5.55;;
55148;SDS011;49539;48.160;11.530;2022-07-23T00:02:37;7.63;;;4.97;;
55148;SDS011;49539;48.160;11.530;2022-07-23T00:05:02;7.95;;;4.93;;
55148;SDS011;49539;48.160;11.530;2022-07-23T00:07:28;7.38;;;5.00;;
55148;SDS011;49539;48.160;11.530;2022-07-23T00:09:53;8.68;;;5.55;;
55148;SDS011;49539;48.160;11.530;2022-07-23T00:12:19;7.78;;;4.18;;
55148;SDS011;49539;48.160;11.530;2022-07-23T00:14:45;16.00;;;6.05;;
55148;SDS011;49539;48.160;11.530;2022-07-23T00:17:11;6.57;;;4.15;;
55148;SDS011;49539;48.160;11.530;2022-07-23T00:19:36;7.53;;;4.88;;
55148;SDS011;49539;48.160;11.530;2022-07-23T00:22:01;7.05;;;4.65;;
55148;SDS011;49539;48.160;11.530;2022-07-23T00:24:27;8.25;;;5.13;;
55148;SDS011;49539;48.160;11.530;2022-07-23T00:26:52;6.57;;;4.47;;
55148;SDS011;49539;48.160;11.530;2022-07-23T00:29:17;8.02;;;4.20;;
55148;SDS011;49539;48.160;11.530;2022-07-23T00:31:43;7.90;;;5.05;;
55148;SDS011;49539;48.160;11.530;2022-07-23T00:34:08;5.95;;;4.43;;
55148;SDS011;49539;48.160;11.530;2022-07-23T00:36:34;7.35;;;4.45;;
55148;SDS011;49539;48.160;11.530;2022-07-23T00:38:59;7.75;;;4.55;;
55148;SDS011;49539;48.160;11.530;2022-07-23T00:41:25;6.78;;;4.65;;
55148;SDS011;49539;48.160;11.530;2022-07-23T00:43:50;8.45;;;4.60;;
55148;SDS011;49539;48.160;11.530;2022-07-23T00:46:19;7.13;;;4.95;;
55148;SDS011;49539;48.160;11.530;2022-07-23T00:48:45;6.25;;;4.55;;
55148;SDS011;49539;48.160;11.530;2022-07-23T00:51:10;6.88;;;4.85;;
55148;SDS011;49539;48.160;11.530;2022-07-23T00:53:36;8.68;;;4.95;;
55148;SDS011;49539;48.160;11.530;2022-07-23T00:56:02;7.68;;;4.57;;
55148;SDS011;49539;48.160;11.530;2022-07-23T00:58:27;7.72;;;4.53;;
55148;SDS011;49539;48.160;11.530;2022-07-23T01:00:53;6.95;;;4.43;;
55148;SDS011;49539;48.160;11.530;2022-07-23T01:03:18;6.55;;;4.38;;
55148;SDS011;49539;48.160;11.530;2022-07-23T01:05:43;8.55;;;5.05;;
55148;SDS011;49539;48.160;11.530;2022-07-23T01:08:09;8.43;;;5.10;;
55148;SDS011;49539;48.160;11.530;2022-07-23T01:10:35;7.10;;;4.95;;
55148;SDS011;49539;48.160;11.530;2022-07-23T01:13:05;7.07;;;4.80;;
55148;SDS011;49539;48.160;11.530;2022-07-23T01:15:35;7.93;;;5.20;;
55148;SDS011;49539;48.160;11.530;2022-07-23T01:18:02;9.48;;;6.10;;
55148;SDS011;49539;48.160;11.530;2022-07-23T01:20:29;9.77;;;6.50;;
55148;SDS011;49539;48.160;11.530;2022-07-23T01:22:55;10.82;;;6.80;;
55148;SDS011;49539;48.160;11.530;2022-07-23T01:25:21;11.45;;;6.47;;
55148;SDS011;49539;48.160;11.530;2022-07-23T01:27:47;11.52;;;4.97;;
55148;SDS011;49539;48.160;11.530;2022-07-23T01:30:13;11.88;;;5.82;;
55148;SDS011;49539;48.160;11.530;2022-07-23T01:32:39;16.95;;;5.60;;
55148;SDS011;49539;48.160;11.530;2022-07-23T01:35:04;16.58;;;5.30;;
55148;SDS011;49539;48.160;11.530;2022-07-23T01:37:31;10.13;;;5.20;;
55148;SDS011;49539;48.160;11.530;2022-07-23T01:39:56;10.27;;;4.15;;
55148;SDS011;49539;48.160;11.530;2022-07-23T01:42:22;7.80;;;4.57;;
55148;SDS011;49539;48.160;11.530;2022-07-23T01:44:48;8.60;;;4.95;;
55148;SDS011;49539;48.160;11.530;2022-07-23T01:47:14;12.15;;;5.95;;
55148;SDS011;49539;48.160;11.530;2022-07-23T01:49:39;9.70;;;5.55;;
55148;SDS011;49539;48.160;11.530;2022-07-23T01:52:04;11.95;;;6.05;;
55148;SDS011;49539;48.160;11.530;2022-07-23T01:54:34;9.93;;;5.68;;
55148;SDS011;49539;48.160;11.530;2022-07-23T01:57:00;9.75;;;5.85;;
55148;SDS011;49539;48.160;11.530;2022-07-23T01:59:26;12.57;;;6.70;;
55148;SDS011;49539;48.160;11.530;2022-07-23T02:01:52;12.35;;;7.03;;
55148;SDS011;49539;48.160;11.530;2022-07-23T02:04:21;12.00;;;6.65;;
55148;SDS011;49539;48.160;11.530;2022-07-23T02:06:47;11.10;;;6.95;;
55148;SDS011;49539;48.160;11.530;2022-07-23T02:09:13;10.98;;;5.97;;
55148;SDS011;49539;48.160;11.530;2022-07-23T02:11:39;8.98;;;5.45;;
55148;SDS011;49539;48.160;11.530;2022-07-23T02:14:04;10.70;;;5.95;;
55148;SDS011;49539;48.160;11.530;2022-07-23T02:16:30;8.50;;;5.57;;
55148;SDS011;49539;48.160;11.530;2022-07-23T02:18:55;11.00;;;5.55;;
55148;SDS011;49539;48.160;11.530;2022-07-23T02:21:21;9.15;;;5.75;;
55148;SDS011;49539;48.160;11.530;2022-07-23T02:23:46;9.82;;;6.22;;
55148;SDS011;49539;48.160;11.530;2022-07-23T02:26:12;11.40;;;6.28;;
55148;SDS011;49539;48.160;11.530;2022-07-23T02:28:37;8.55;;;5.78;;
55148;SDS011;49539;48.160;11.530;2022-07-23T02:31:02;8.32;;;5.90;;
55148;SDS011;49539;48.160;11.530;2022-07-23T02:33:28;9.43;;;5.40;;
55148;SDS011;49539;48.160;11.530;2022-07-23T02:35:54;8.40;;;4.93;;
55148;SDS011;49539;48.160;11.530;2022-07-23T02:38:19;8.20;;;4.50;;
55148;SDS011;49539;48.160;11.530;2022-07-23T02:40:44;6.72;;;4.47;;
55148;SDS011;49539;48.160;11.530;2022-07-23T02:43:10;5.95;;;3.75;;
55148;SDS011;49539;48.160;11.530;2022-07-23T02:45:35;7.80;;;2.95;;
55148;SDS011;49539;48.160;11.530;2022-07-23T02:48:00;5.97;;;3.50;;
55148;SDS011;49539;48.160;11.530;2022-07-23T02:50:26;7.88;;;4.38;;
55148;SDS011;49539;48.160;11.530;2022-07-23T02:52:51;6.70;;;4.05;;
55148;SDS011;49539;48.160;11.530;2022-07-23T02:55:16;7.72;;;3.72;;
55148;SDS011;49539;48.160;11.530;2022-07-23T02:57:42;7.00;;;4.05;;
55148;SDS011;49539;48.160;11.530;2022-07-23T03:00:07;9.25;;;5.15;;
55148;SDS011;49539;48.160;11.530;2022-07-23T03:02:33;8.52;;;4.53;;
55148;SDS011;49539;48.160;11.530;2022-07-23T03:04:59;10.50;;;5.82;;
55148;SDS011;49539;48.160;11.530;2022-07-23T03:07:24;7.22;;;4.38;;
55148;SDS011;49539;48.160;11.530;2022-07-23T03:09:50;4.97;;;2.85;;
55148;SDS011;49539;48.160;11.530;2022-07-23T03:12:15;6.22;;;3.63;;
55148;SDS011;49539;48.160;11.530;2022-07-23T03:14:41;6.82;;;3.63;;
55148;SDS011;49539;48.160;11.530;2022-07-23T03:17:07;7.22;;;3.63;;
55148;SDS011;49539;48.160;11.530;2022-07-23T03:19:33;5.57;;;3.00;;
55148;SDS011;49539;48.160;11.530;2022-07-23T03:21:59;5.20;;;3.42;;
55148;SDS011;49539;48.160;11.530;2022-07-23T03:24:24;7.45;;;3.58;;
55148;SDS011;49539;48.160;11.530;2022-07-23T03:27:09;6.00;;;3.72;;
55148;SDS011;49539;48.160;11.530;2022-07-23T03:29:35;5.53;;;3.63;;
55148;SDS011;49539;48.160;11.530;2022-07-23T03:32:02;5.72;;;3.70;;
55148;SDS011;49539;48.160;11.530;2022-07-23T03:34:28;5.75;;;3.65;;
55148;SDS011;49539;48.160;11.530;2022-07-23T03:36:53;6.93;;;4.38;;
55148;SDS011;49539;48.160;11.530;2022-07-23T03:39:19;6.88;;;4.25;;
55148;SDS011;49539;48.160;11.530;2022-07-23T03:41:44;6.47;;;4.43;;
55148;SDS011;49539;48.160;11.530;2022-07-23T03:44:09;7.55;;;4.57;;
55148;SDS011;49539;48.160;11.530;2022-07-23T03:46:35;6.82;;;4.28;;
55148;SDS011;49539;48.160;11.530;2022-07-23T03:49:00;11.95;;;4.85;;
55148;SDS011;49539;48.160;11.530;2022-07-23T03:51:25;6.43;;;4.47;;
55148;SDS011;49539;48.160;11.530;2022-07-23T03:53:51;6.82;;;4.28;;
55148;SDS011;49539;48.160;11.530;2022-07-23T03:56:16;7.53;;;4.85;;
55148;SDS011;49539;48.160;11.530;2022-07-23T03:58:41;11.40;;;5.07;;
55148;SDS011;49539;48.160;11.530;2022-07-23T04:01:07;7.47;;;4.95;;
55148;SDS011;49539;48.160;11.530;2022-07-23T04:03:32;7.63;;;5.10;;
55148;SDS011;49539;48.160;11.530;2022-07-23T04:05:57;6.53;;;4.78;;
55148;SDS011;49539;48.160;11.530;2022-07-23T04:08:23;11.15;;;4.95;;
55148;SDS011;49539;48.160;11.530;2022-07-23T04:10:48;10.40;;;4.85;;
55148;SDS011;49539;48.160;11.530;2022-07-23T04:13:14;8.13;;;5.03;;
55148;SDS011;49539;48.160;11.530;2022-07-23T04:15:39;9.25;;;5.35;;
55148;SDS011;49539;48.160;11.530;2022-07-23T04:18:04;7.22;;;4.28;;
55148;SDS011;49539;48.160;11.530;2022-07-23T04:20:30;7.75;;;4.85;;
55148;SDS011;49539;48.160;11.530;2022-07-23T04:22:55;6.38;;;4.43;;
55148;SDS011;49539;48.160;11.530;2022-07-23T04:25:21;7.75;;;5.18;;
55148;SDS011;49539;48.160;11.530;2022-07-23T04:27:46;9.52;;;5.30;;
55148;SDS011;49539;48.160;11.530;2022-07-23T04:30:11;7.72;;;4.88;;
55148;SDS011;49539;48.160;11.530;2022-07-23T04:32:37;8.27;;;5.32;;
55148;SDS011;49539;48.160;11.530;2022-07-23T04:35:02;8.90;;;4.82;;
55148;SDS011;49539;48.160;11.530;2022-07-23T04:37:28;8.57;;;5.50;;
55148;SDS011;49539;48.160;11.530;2022-07-23T04:39:53;7.07;;;4.70;;
55148;SDS011;49539;48.160;11.530;2022-07-23T04:42:18;7.03;;;4.68;;
55148;SDS011;49539;48.160;11.530;2022-07-23T04:44:44;8.40;;;4.95;;
55148;SDS011;49539;48.160;11.530;2022-07-23T04:47:09;6.80;;;4.65;;
55148;SDS011;49539;48.160;11.530;2022-07-23T04:49:35;7.38;;;5.07;;
55148;SDS011;49539;48.160;11.530;2022-07-23T04:52:01;9.68;;;5.80;;
55148;SDS011;49539;48.160;11.530;2022-07-23T04:54:26;8.48;;;4.97;;
55148;SDS011;49539;48.160;11.530;2022-07-23T04:56:52;8.68;;;4.75;;
55148;SDS011;49539;48.160;11.530;2022-07-23T04:59:18;6.50;;;3.90;;
55148;SDS011;49539;48.160;11.530;2022-07-23T05:01:43;8.32;;;5.03;;
55148;SDS011;49539;48.160;11.530;2022-07-23T05:04:08;8.00;;;4.80;;
55148;SDS011;49539;48.160;11.530;2022-07-23T05:06:34;8.73;;;4.95;;
55148;SDS011;49539;48.160;11.530;2022-07-23T05:08:59;7.32;;;4.82;;
55148;SDS011;49539;48.160;11.530;2022-07-23T05:11:25;8.80;;;5.57;;
55148;SDS011;49539;48.160;11.530;2022-07-23T05:13:50;7.88;;;5.28;;
55148;SDS011;49539;48.160;11.530;2022-07-23T05:16:16;7.70;;;4.53;;
55148;SDS011;49539;48.160;11.530;2022-07-23T05:18:42;9.13;;;5.57;;
55148;SDS011;49539;48.160;11.530;2022-07-23T05:21:07;8.40;;;4.35;;
55148;SDS011;49539;48.160;11.530;2022-07-23T05:23:32;8.23;;;4.80;;
55148;SDS011;49539;48.160;11.530;2022-07-23T05:25:58;8.13;;;4.78;;
55148;SDS011;49539;48.160;11.530;2022-07-23T05:28:23;8.88;;;4.90;;
55148;SDS011;49539;48.160;11.530;2022-07-23T05:30:48;6.13;;;4.20;;
55148;SDS011;49539;48.160;11.530;2022-07-23T05:33:14;8.68;;;5.15;;
55148;SDS011;49539;48.160;11.530;2022-07-23T05:35:39;8.50;;;5.82;;
55148;SDS011;49539;48.160;11.530;2022-07-23T05:38:04;7.65;;;5.43;;
55148;SDS011;49539;48.160;11.530;2022-07-23T05:40:30;7.40;;;4.95;;
55148;SDS011;49539;48.160;11.530;2022-07-23T05:42:55;9.50;;;5.20;;
55148;SDS011;49539;48.160;11.530;2022-07-23T05:45:21;7.95;;;4.97;;
55148;SDS011;49539;48.160;11.530;2022-07-23T05:47:47;9.35;;;5.70;;
55148;SDS011;49539;48.160;11.530;2022-07-23T05:50:13;7.95;;;5.35;;
55148;SDS011;49539;48.160;11.530;2022-07-23T05:52:39;7.63;;;5.00;;
55148;SDS011;49539;48.160;11.530;2022-07-23T05:55:06;8.40;;;5.55;;
55148;SDS011;49539;48.160;11.530;2022-07-23T05:57:32;8.95;;;5.40;;
55148;SDS011;49539;48.160;11.530;2022-07-23T05:59:58;8.75;;;4.97;;
55148;SDS011;49539;48.160;11.530;2022-07-23T06:02:23;7.60;;;4.93;;
55148;SDS011;49539;48.160;11.530;2022-07-23T06:04:49;7.68;;;4.57;;
55148;SDS011;49539;48.160;11.530;2022-07-23T06:07:14;13.80;;;5.47;;
55148;SDS011;49539;48.160;11.530;2022-07-23T06:09:39;7.60;;;5.57;;
55148;SDS011;49539;48.160;11.530;2022-07-23T06:12:05;7.13;;;4.35;;
55148;SDS011;49539;48.160;11.530;2022-07-23T06:14:31;8.93;;;5.43;;
55148;SDS011;49539;48.160;11.530;2022-07-23T06:16:56;7.78;;;5.60;;
55148;SDS011;49539;48.160;11.530;2022-07-23T06:19:21;8.95;;;4.82;;
55148;SDS011;49539;48.160;11.530;2022-07-23T06:21:47;8.07;;;5.10;;
55148;SDS011;49539;48.160;11.530;2022-07-23T06:24:12;8.15;;;5.07;;
55148;SDS011;49539;48.160;11.530;2022-07-23T06:26:38;9.65;;;5.68;;
55148;SDS011;49539;48.160;11.530;2022-07-23T06:29:03;9.27;;;5.82;;
55148;SDS011;49539;48.160;11.530;2022-07-23T06:31:28;8.25;;;4.93;;
55148;SDS011;49539;48.160;11.530;2022-07-23T06:33:54;7.95;;;5.05;;
55148;SDS011;49539;48.160;11.530;2022-07-23T06:36:19;9.63;;;5.57;;
55148;SDS011;49539;48.160;11.530;2022-07-23T06:38:45;9.10;;;5.45;;
55148;SDS011;49539;48.160;11.530;2022-07-23T06:41:10;8.07;;;4.60;;
55148;SDS011;49539;48.160;11.530;2022-07-23T06:43:36;7.30;;;4.93;;
55148;SDS011;49539;48.160;11.530;2022-07-23T06:46:01;7.97;;;4.63;;
55148;SDS011;49539;48.160;11.530;2022-07-23T06:48:26;8.45;;;5.18;;
55148;SDS011;49539;48.160;11.530;2022-07-23T06:50:53;9.60;;;5.50;;
55148;SDS011;49539;48.160;11.530;2022-07-23T06:53:19;10.45;;;5.40;;
55148;SDS011;49539;48.160;11.530;2022-07-23T06:55:45;9.07;;;5.22;;
55148;SDS011;49539;48.160;11.530;2022-07-23T06:58:10;9.50;;;5.63;;
55148;SDS011;49539;48.160;11.530;2022-07-23T07:00:35;7.53;;;5.30;;
55148;SDS011;49539;48.160;11.530;2022-07-23T07:03:01;8.45;;;4.68;;
55148;SDS011;49539;48.160;11.530;2022-07-23T07:05:26;15.15;;;5.20;;
55148;SDS011;49539;48.160;11.530;2022-07-23T07:07:54;6.65;;;4.60;;
55148;SDS011;49539;48.160;11.530;2022-07-23T07:10:19;10.45;;;5.57;;
55148;SDS011;49539;48.160;11.530;2022-07-23T07:12:45;8.18;;;5.22;;
55148;SDS011;49539;48.160;11.530;2022-07-23T07:15:10;8.38;;;4.95;;
55148;SDS011;49539;48.160;11.530;2022-07-23T07:17:37;7.88;;;5.05;;
55148;SDS011;49539;48.160;11.530;2022-07-23T07:20:02;7.40;;;5.13;;
55148;SDS011;49539;48.160;11.530;2022-07-23T07:22:28;8.02;;;5.53;;
55148;SDS011;49539;48.160;11.530;2022-07-23T07:24:54;9.00;;;5.30;;
55148;SDS011;49539;48.160;11.530;2022-07-23T07:27:19;9.38;;;5.15;;
55148;SDS011;49539;48.160;11.530;2022-07-23T07:29:44;8.27;;;5.10;;
55148;SDS011;49539;48.160;11.530;2022-07-23T07:32:10;8.75;;;5.88;;
55148;SDS011;49539;48.160;11.530;2022-07-23T07:34:35;9.52;;;5.60;;
55148;SDS011;49539;48.160;11.530;2022-07-23T07:37:00;9.00;;;5.60;;
55148;SDS011;49539;48.160;11.530;2022-07-23T07:39:26;9.35;;;5.55;;
55148;SDS011;49539;48.160;11.530;2022-07-23T07:41:51;9.30;;;5.97;;
55148;SDS011;49539;48.160;11.530;2022-07-23T07:44:17;9.30;;;5.70;;
55148;SDS011;49539;48.160;11.530;2022-07-23T07:46:42;8.73;;;5.38;;
55148;SDS011;49539;48.160;11.530;2022-07-23T07:49:07;10.20;;;5.68;;
55148;SDS011;49539;48.160;11.530;2022-07-23T07:51:33;9.15;;;5.75;;
55148;SDS011;49539;48.160;11.530;2022-07-23T07:53:59;9.73;;;5.20;;
55148;SDS011;49539;48.160;11.530;2022-07-23T07:56:25;8.90;;;5.55;;
55148;SDS011;49539;48.160;11.530;2022-07-23T07:58:50;10.13;;;5.57;;
55148;SDS011;49539;48.160;11.530;2022-07-23T08:01:15;9.10;;;6.38;;
55148;SDS011;49539;48.160;11.530;2022-07-23T08:03:42;9.30;;;6.38;;
55148;SDS011;49539;48.160;11.530;2022-07-23T08:06:07;9.77;;;6.28;;
55148;SDS011;49539;48.160;11.530;2022-07-23T08:08:32;11.20;;;6.13;;
55148;SDS011;49539;48.160;11.530;2022-07-23T08:10:58;8.20;;;5.25;;
55148;SDS011;49539;48.160;11.530;2022-07-23T08:13:23;8.45;;;5.60;;
55148;SDS011;49539;48.160;11.530;2022-07-23T08:15:49;10.00;;;5.78;;
55148;SDS011;49539;48.160;11.530;2022-07-23T08:18:14;10.80;;;5.82;;
55148;SDS011;49539;48.160;11.530;2022-07-23T08:20:40;9.75;;;5.53;;
55148;SDS011;49539;48.160;11.530;2022-07-23T08:23:06;7.65;;;4.80;;
55148;SDS011;49539;48.160;11.530;2022-07-23T08:25:40;8.85;;;5.47;;
55148;SDS011;49539;48.160;11.530;2022-07-23T08:28:13;7.60;;;5.15;;
55148;SDS011;49539;48.160;11.530;2022-07-23T08:30:43;9.45;;;5.95;;
55148;SDS011;49539;48.160;11.530;2022-07-23T08:33:12;8.35;;;4.85;;
55148;SDS011;49539;48.160;11.530;2022-07-23T08:35:43;13.85;;;5.00;;
55148;SDS011;49539;48.160;11.530;2022-07-23T08:38:13;9.13;;;5.60;;
55148;SDS011;49539;48.160;11.530;2022-07-23T08:40:41;7.13;;;4.72;;
55148;SDS011;49539;48.160;11.530;2022-07-23T08:43:18;10.10;;;5.40;;
55148;SDS011;49539;48.160;11.530;2022-07-23T08:45:47;9.13;;;5.93;;
55148;SDS011;49539;48.160;11.530;2022-07-23T08:48:15;6.47;;;4.53;;
55148;SDS011;49539;48.160;11.530;2022-07-23T08:50:44;6.78;;;4.50;;
55148;SDS011;49539;48.160;11.530;2022-07-23T08:53:11;6.35;;;4.85;;
55148;SDS011;49539;48.160;11.530;2022-07-23T08:55:37;8.32;;;4.72;;
55148;SDS011;49539;48.160;11.530;2022-07-23T08:58:03;8.65;;;5.10;;
55148;SDS011;49539;48.160;11.530;2022-07-23T09:00:28;6.97;;;4.85;;
55148;SDS011;49539;48.160;11.530;2022-07-23T09:02:54;6.53;;;4.68;;
55148;SDS011;49539;48.160;11.530;2022-07-23T09:05:20;7.13;;;4.97;;
55148;SDS011;49539;48.160;11.530;2022-07-23T09:10:57;10.40;;;5.47;;
55148;SDS011;49539;48.160;11.530;2022-07-23T09:16:15;10.98;;;6.53;;
55148;SDS011;49539;48.160;11.530;2022-07-23T09:18:48;8.27;;;5.43;;
55148;SDS011;49539;48.160;11.530;2022-07-23T09:21:29;11.93;;;7.07;;
55148;SDS011;49539;48.160;11.530;2022-07-23T09:26:37;8.63;;;5.40;;
55148;SDS011;49539;48.160;11.530;2022-07-23T09:31:41;7.93;;;5.38;;
55148;SDS011;49539;48.160;11.530;2022-07-23T09:36:47;8.32;;;5.35;;
55148;SDS011;49539;48.160;11.530;2022-07-23T09:39:14;7.45;;;4.75;;
55148;SDS011;49539;48.160;11.530;2022-07-23T09:41:44;7.90;;;5.20;;
55148;SDS011;49539;48.160;11.530;2022-07-23T09:44:15;8.88;;;4.57;;
55148;SDS011;49539;48.160;11.530;2022-07-23T09:46:42;6.63;;;4.50;;
55148;SDS011;49539;48.160;11.530;2022-07-23T09:49:10;8.82;;;5.13;;
55148;SDS011;49539;48.160;11.530;2022-07-23T09:51:43;11.98;;;7.13;;
55148;SDS011;49539;48.160;11.530;2022-07-23T09:57:07;9.68;;;5.60;;
55148;SDS011;49539;48.160;11.530;2022-07-23T09:59:36;6.50;;;4.28;;
55148;SDS011;49539;48.160;11.530;2022-07-23T10:02:03;5.72;;;3.80;;
55148;SDS011;49539;48.160;11.530;2022-07-23T10:04:30;10.43;;;4.22;;
55148;SDS011;49539;48.160;11.530;2022-07-23T10:06:57;6.05;;;3.53;;
55148;SDS011;49539;48.160;11.530;2022-07-23T10:09:28;7.75;;;3.60;;
55148;SDS011;49539;48.160;11.530;2022-07-23T10:11:58;8.25;;;4.30;;
55148;SDS011;49539;48.160;11.530;2022-07-23T10:14:30;6.57;;;3.92;;
55148;SDS011;49539;48.160;11.530;2022-07-23T10:16:57;7.18;;;3.97;;
55148;SDS011;49539;48.160;11.530;2022-07-23T10:19:24;5.35;;;3.30;;
55148;SDS011;49539;48.160;11.530;2022-07-23T10:22:00;7.40;;;3.95;;
55148;SDS011;49539;48.160;11.530;2022-07-23T10:30:00;4.97;;;3.70;;
55148;SDS011;49539;48.160;11.530;2022-07-23T10:38:37;6.90;;;3.72;;
55148;SDS011;49539;48.160;11.530;2022-07-23T10:41:05;9.85;;;3.85;;
55148;SDS011;49539;48.160;11.530;2022-07-23T10:43:31;7.25;;;3.70;;
55148;SDS011;49539;48.160;11.530;2022-07-23T10:46:20;5.88;;;3.50;;
55148;SDS011;49539;48.160;11.530;2022-07-23T10:54:51;6.65;;;3.97;;
55148;SDS011;49539;48.160;11.530;2022-07-23T10:57:20;9.90;;;4.22;;
55148;SDS011;49539;48.160;11.530;2022-07-23T11:02:41;5.43;;;3.63;;
55148;SDS011;49539;48.160;11.530;2022-07-23T11:05:09;6.63;;;3.63;;
55148;SDS011;49539;48.160;11.530;2022-07-23T11:08:09;5.63;;;3.10;;
55148;SDS011;49539;48.160;11.530;2022-07-23T11:37:27;5.68;;;4.13;;
55148;SDS011;49539;48.160;11.530;2022-07-23T11:39:56;7.75;;;4.07;;
55148;SDS011;49539;48.160;11.530;2022-07-23T11:42:22;7.25;;;3.95;;
55148;SDS011;49539;48.160;11.530;2022-07-23T11:44:49;7.53;;;4.55;;
55148;SDS011;49539;48.160;11.530;2022-07-23T11:47:20;6.82;;;4.60;;
55148;SDS011;49539;48.160;11.530;2022-07-23T11:49:53;8.05;;;4.35;;
55148;SDS011;49539;48.160;11.530;2022-07-23T11:52:24;6.90;;;4.63;;
55148;SDS011;49539;48.160;11.530;2022-07-23T11:54:51;7.70;;;5.10;;
55148;SDS011;49539;48.160;11.530;2022-07-23T11:57:20;11.95;;;4.72;;
55148;SDS011;49539;48.160;11.530;2022-07-23T11:59:51;6.63;;;4.10;;
55148;SDS011;49539;48.160;11.530;2022-07-23T12:02:20;6.88;;;4.30;;
55148;SDS011;49539;48.160;11.530;2022-07-23T12:04:48;6.93;;;4.55;;
55148;SDS011;49539;48.160;11.530;2022-07-23T12:07:35;6.60;;;4.60;;
55148;SDS011;49539;48.160;11.530;2022-07-23T12:12:38;8.80;;;5.32;;
55148;SDS011;49539;48.160;11.530;2022-07-23T12:15:06;7.93;;;4.45;;
55148;SDS011;49539;48.160;11.530;2022-07-23T12:17:33;7.68;;;4.90;;
55148;SDS011;49539;48.160;11.530;2022-07-23T12:20:00;7.32;;;4.78;;
55148;SDS011;49539;48.160;11.530;2022-07-23T12:22:36;7.13;;;4.43;;
55148;SDS011;49539;48.160;11.530;2022-07-23T12:25:08;9.75;;;5.60;;
55148;SDS011;49539;48.160;11.530;2022-07-23T12:27:36;7.93;;;4.80;;
55148;SDS011;49539;48.160;11.530;2022-07-23T12:32:51;9.82;;;5.18;;
55148;SDS011;49539;48.160;11.530;2022-07-23T12:35:18;6.90;;;4.78;;
55148;SDS011;49539;48.160;11.530;2022-07-23T12:37:45;6.80;;;4.30;;
55148;SDS011;49539;48.160;11.530;2022-07-23T12:40:26;8.95;;;4.85;;
55148;SDS011;49539;48.160;11.530;2022-07-23T12:42:58;7.78;;;4.57;;
55148;SDS011;49539;48.160;11.530;2022-07-23T12:45:25;7.50;;;4.10;;
55148;SDS011;49539;48.160;11.530;2022-07-23T12:47:57;9.00;;;4.55;;
55148;SDS011;49539;48.160;11.530;2022-07-23T12:50:34;8.65;;;5.03;;
55148;SDS011;49539;48.160;11.530;2022-07-23T12:53:11;8.02;;;4.70;;
55148;SDS011;49539;48.160;11.530;2022-07-23T12:55:39;7.03;;;4.22;;
55148;SDS011;49539;48.160;11.530;2022-07-23T12:58:15;6.60;;;4.10;;
55148;SDS011;49539;48.160;11.530;2022-07-23T13:01:16;8.63;;;5.03;;
55148;SDS011;49539;48.160;11.530;2022-07-23T13:09:12;6.47;;;4.43;;
55148;SDS011;49539;48.160;11.530;2022-07-23T13:11:40;7.63;;;4.80;;
55148;SDS011;49539;48.160;11.530;2022-07-23T13:14:06;6.93;;;4.38;;
55148;SDS011;49539;48.160;11.530;2022-07-23T13:16:31;8.73;;;5.13;;
55148;SDS011;49539;48.160;11.530;2022-07-23T13:18:58;6.88;;;5.05;;
55148;SDS011;49539;48.160;11.530;2022-07-23T13:21:24;8.52;;;4.95;;
55148;SDS011;49539;48.160;11.530;2022-07-23T13:23:51;8.30;;;5.00;;
55148;SDS011;49539;48.160;11.530;2022-07-23T13:26:16;8.05;;;4.78;;
55148;SDS011;49539;48.160;11.530;2022-07-23T13:28:42;9.10;;;4.82;;
55148;SDS011;49539;48.160;11.530;2022-07-23T13:31:07;8.98;;;4.97;;
55148;SDS011;49539;48.160;11.530;2022-07-23T13:33:33;7.82;;;5.13;;
55148;SDS011;49539;48.160;11.530;2022-07-23T13:35:59;9.15;;;4.88;;
55148;SDS011;49539;48.160;11.530;2022-07-23T13:38:25;9.27;;;5.28;;
55148;SDS011;49539;48.160;11.530;2022-07-23T13:40:51;7.45;;;5.20;;
55148;SDS011;49539;48.160;11.530;2022-07-23T13:43:17;7.22;;;4.78;;
55148;SDS011;49539;48.160;11.530;2022-07-23T13:45:44;8.15;;;5.10;;
55148;SDS011;49539;48.160;11.530;2022-07-23T13:48:11;7.40;;;5.25;;
55148;SDS011;49539;48.160;11.530;2022-07-23T13:50:37;8.43;;;5.25;;
55148;SDS011;49539;48.160;11.530;2022-07-23T13:53:04;9.63;;;5.13;;
55148;SDS011;49539;48.160;11.530;2022-07-23T13:55:32;8.50;;;5.38;;
55148;SDS011;49539;48.160;11.530;2022-07-23T13:57:58;6.28;;;4.65;;
55148;SDS011;49539;48.160;11.530;2022-07-23T14:00:23;8.13;;;5.00;;
55148;SDS011;49539;48.160;11.530;2022-07-23T14:02:49;7.20;;;4.60;;
55148;SDS011;49539;48.160;11.530;2022-07-23T14:05:14;7.72;;;4.90;;
55148;SDS011;49539;48.160;11.530;2022-07-23T14:07:40;7.20;;;4.57;;
55148;SDS011;49539;48.160;11.530;2022-07-23T14:10:07;9.20;;;4.97;;
55148;SDS011;49539;48.160;11.530;2022-07-23T14:12:33;6.68;;;4.25;;
55148;SDS011;49539;48.160;11.530;2022-07-23T14:14:59;6.95;;;4.63;;
55148;SDS011;49539;48.160;11.530;2022-07-23T14:17:24;8.73;;;4.85;;
55148;SDS011;49539;48.160;11.530;2022-07-23T14:19:50;7.38;;;4.82;;
55148;SDS011;49539;48.160;11.530;2022-07-23T14:22:15;6.97;;;4.22;;
55148;SDS011;49539;48.160;11.530;2022-07-23T14:24:41;8.50;;;4.43;;
55148;SDS011;49539;48.160;11.530;2022-07-23T14:27:06;8.55;;;5.55;;
55148;SDS011;49539;48.160;11.530;2022-07-23T14:29:32;7.07;;;4.47;;
55148;SDS011;49539;48.160;11.530;2022-07-23T14:31:58;7.68;;;4.55;;
55148;SDS011;49539;48.160;11.530;2022-07-23T14:34:23;7.65;;;4.97;;
55148;SDS011;49539;48.160;11.530;2022-07-23T14:36:50;6.10;;;4.20;;
55148;SDS011;49539;48.160;11.530;2022-07-23T14:39:15;8.70;;;4.50;;
55148;SDS011;49539;48.160;11.530;2022-07-23T14:41:41;7.00;;;4.63;;
55148;SDS011;49539;48.160;11.530;2022-07-23T14:44:06;6.78;;;4.82;;
55148;SDS011;49539;48.160;11.530;2022-07-23T14:46:32;8.60;;;4.90;;
55148;SDS011;49539;48.160;11.530;2022-07-23T14:48:57;7.55;;;4.50;;
55148;SDS011;49539;48.160;11.530;2022-07-23T14:51:23;7.75;;;4.60;;
55148;SDS011;49539;48.160;11.530;2022-07-23T14:53:48;9.95;;;4.80;;
55148;SDS011;49539;48.160;11.530;2022-07-23T14:56:14;10.35;;;4.63;;
55148;SDS011;49539;48.160;11.530;2022-07-23T14:58:40;7.43;;;4.82;;
55148;SDS011;49539;48.160;11.530;2022-07-23T15:01:05;7.70;;;4.43;;
55148;SDS011;49539;48.160;11.530;2022-07-23T15:03:30;7.50;;;4.72;;
55148;SDS011;49539;48.160;11.530;2022-07-23T15:05:56;6.95;;;4.90;;
55148;SDS011;49539;48.160;11.530;2022-07-23T15:08:21;7.15;;;4.43;;
55148;SDS011;49539;48.160;11.530;2022-07-23T15:10:47;6.38;;;4.57;;
55148;SDS011;49539;48.160;11.530;2022-07-23T15:13:12;6.43;;;4.38;;
55148;SDS011;49539;48.160;11.530;2022-07-23T15:15:38;9.25;;;4.40;;
55148;SDS011;49539;48.160;11.530;2022-07-23T15:18:04;7.75;;;4.75;;
55148;SDS011;49539;48.160;11.530;2022-07-23T15:20:29;7.15;;;4.68;;
55148;SDS011;49539;48.160;11.530;2022-07-23T15:22:56;8.55;;;4.55;;
55148;SDS011;49539;48.160;11.530;2022-07-23T15:25:22;7.30;;;4.75;;
55148;SDS011;49539;48.160;11.530;2022-07-23T15:27:48;6.97;;;4.90;;
55148;SDS011;49539;48.160;11.530;2022-07-23T15:30:13;7.93;;;3.60;;
55148;SDS011;49539;48.160;11.530;2022-07-23T15:32:39;8.48;;;4.63;;
55148;SDS011;49539;48.160;11.530;2022-07-23T15:35:04;10.85;;;5.22;;
55148;SDS011;49539;48.160;11.530;2022-07-23T15:37:32;6.10;;;3.97;;
55148;SDS011;49539;48.160;11.530;2022-07-23T15:39:57;7.13;;;4.60;;
55148;SDS011;49539;48.160;11.530;2022-07-23T15:42:23;7.15;;;4.28;;
55148;SDS011;49539;48.160;11.530;2022-07-23T15:44:48;6.05;;;4.47;;